sensor_id;sensor_type;location;lat;lon;timestamp;pressure;altitude;pressure_sealevel;temperature;humidity
11124;BME280;5616;42.692;23.312;2023-05-20T00:01:45;95440.28;;;13.97;92.52
11124;BME280;5616;42.692;23.312;2023-05-20T00:04:12;95438.59;;;13.83;93.35
11124;BME280;5616;42.692;23.312;2023-05-20T00:06:39;95435.28;;;13.61;94.86
11124;BME280;5616;42.692;23.312;2023-05-20T00:09:07;95424.03;;;13.47;96.10
11124;BME280;5616;42.692;23.312;2023-05-20T00:11:34;95431.75;;;13.41;97.74
11124;BME280;5616;42.692;23.312;2023-05-20T00:14:01;95430.19;;;13.46;97.30
11124;BME280;5616;42.692;23.312;2023-05-20T00:16:27;95431.66;;;13.56;97.16
11124;BME280;5616;42.692;23.312;2023-05-20T00:18:54;95428.94;;;13.64;96.17
11124;BME280;5616;42.692;23.312;2023-05-20T00:21:22;95428.13;;;13.70;95.74
11124;BME280;5616;42.692;23.312;2023-05-20T00:23:49;95424.53;;;13.64;95.50
11124;BME280;5616;42.692;23.312;2023-05-20T00:26:17;95425.16;;;13.38;96.95
11124;BME280;5616;42.692;23.312;2023-05-20T00:28:51;95422.03;;;13.49;96.67
11124;BME280;5616;42.692;23.312;2023-05-20T00:31:17;95416.69;;;13.51;96.36
11124;BME280;5616;42.692;23.312;2023-05-20T00:33:44;95415.78;;;13.37;97.70
11124;BME280;5616;42.692;23.312;2023-05-20T00:36:11;95411.22;;;13.39;98.16
11124;BME280;5616;42.692;23.312;2023-05-20T00:38:38;95414.97;;;13.37;97.81
11124;BME280;5616;42.692;23.312;2023-05-20T00:41:05;95420.34;;;13.35;96.78
11124;BME280;5616;42.692;23.312;2023-05-20T00:43:33;95419.03;;;13.18;97.25
11124;BME280;5616;42.692;23.312;2023-05-20T00:46:00;95409.09;;;13.22;96.61
11124;BME280;5616;42.692;23.312;2023-05-20T00:48:32;95403.50;;;13.25;96.82
11124;BME280;5616;42.692;23.312;2023-05-20T00:51:02;95406.91;;;13.25;96.07
11124;BME280;5616;42.692;23.312;2023-05-20T00:53:29;95403.81;;;13.09;97.54
11124;BME280;5616;42.692;23.312;2023-05-20T00:55:56;95404.97;;;13.06;97.24
11124;BME280;5616;42.692;23.312;2023-05-20T00:58:23;95409.00;;;12.87;98.05
11124;BME280;5616;42.692;23.312;2023-05-20T01:00:51;95403.84;;;12.94;98.02
11124;BME280;5616;42.692;23.312;2023-05-20T01:03:18;95394.09;;;12.96;97.51
11124;BME280;5616;42.692;23.312;2023-05-20T01:05:46;95387.84;;;13.12;96.99
11124;BME280;5616;42.692;23.312;2023-05-20T01:08:14;95397.69;;;13.16;95.94
11124;BME280;5616;42.692;23.312;2023-05-20T01:10:42;95394.63;;;12.85;97.44
11124;BME280;5616;42.692;23.312;2023-05-20T01:13:15;95405.50;;;13.02;97.42
11124;BME280;5616;42.692;23.312;2023-05-20T01:15:44;95403.72;;;13.02;96.32
11124;BME280;5616;42.692;23.312;2023-05-20T01:18:13;95401.72;;;13.04;96.21
11124;BME280;5616;42.692;23.312;2023-05-20T01:20:43;95406.81;;;12.91;96.57
11124;BME280;5616;42.692;23.312;2023-05-20T01:23:14;95413.28;;;13.02;96.11
11124;BME280;5616;42.692;23.312;2023-05-20T01:25:41;95406.63;;;12.93;96.29
11124;BME280;5616;42.692;23.312;2023-05-20T01:28:08;95406.41;;;12.87;96.48
11124;BME280;5616;42.692;23.312;2023-05-20T01:30:46;95410.59;;;12.67;97.27
11124;BME280;5616;42.692;23.312;2023-05-20T01:33:15;95405.41;;;12.67;98.11
11124;BME280;5616;42.692;23.312;2023-05-20T01:35:44;95405.88;;;12.77;98.02
11124;BME280;5616;42.692;23.312;2023-05-20T01:38:16;95398.44;;;12.89;97.02
11124;BME280;5616;42.692;23.312;2023-05-20T01:40:45;95408.44;;;12.92;97.00
11124;BME280;5616;42.692;23.312;2023-05-20T01:43:13;95401.28;;;12.73;97.16
11124;BME280;5616;42.692;23.312;2023-05-20T01:45:40;95402.94;;;12.80;97.69
11124;BME280;5616;42.692;23.312;2023-05-20T01:48:09;95409.47;;;12.76;97.29
11124;BME280;5616;42.692;23.312;2023-05-20T01:50:36;95406.78;;;12.84;97.56
11124;BME280;5616;42.692;23.312;2023-05-20T01:53:03;95404.75;;;12.80;97.81
11124;BME280;5616;42.692;23.312;2023-05-20T01:55:31;95398.44;;;12.89;97.88
11124;BME280;5616;42.692;23.312;2023-05-20T01:57:59;95390.78;;;12.81;97.74
11124;BME280;5616;42.692;23.312;2023-05-20T02:00:25;95392.81;;;12.85;98.63
11124;BME280;5616;42.692;23.312;2023-05-20T02:02:52;95400.66;;;12.92;98.60
11124;BME280;5616;42.692;23.312;2023-05-20T02:05:19;95392.91;;;12.99;98.31
11124;BME280;5616;42.692;23.312;2023-05-20T02:07:46;95399.13;;;13.04;97.45
11124;BME280;5616;42.692;23.312;2023-05-20T02:10:12;95394.16;;;13.03;97.94
11124;BME280;5616;42.692;23.312;2023-05-20T02:12:41;95382.41;;;12.79;98.08
11124;BME280;5616;42.692;23.312;2023-05-20T02:15:08;95374.44;;;12.80;98.96
11124;BME280;5616;42.692;23.312;2023-05-20T02:17:35;95385.09;;;12.92;98.28
11124;BME280;5616;42.692;23.312;2023-05-20T02:20:05;95394.72;;;12.98;97.08
11124;BME280;5616;42.692;23.312;2023-05-20T02:22:33;95394.97;;;13.03;97.06
11124;BME280;5616;42.692;23.312;2023-05-20T02:25:02;95379.00;;;12.78;98.17
11124;BME280;5616;42.692;23.312;2023-05-20T02:27:29;95387.72;;;12.71;99.33
11124;BME280;5616;42.692;23.312;2023-05-20T02:29:57;95380.41;;;12.81;98.48
11124;BME280;5616;42.692;23.312;2023-05-20T02:32:24;95384.41;;;12.83;98.06
11124;BME280;5616;42.692;23.312;2023-05-20T02:34:52;95376.25;;;12.80;98.28
11124;BME280;5616;42.692;23.312;2023-05-20T02:37:19;95379.13;;;12.70;98.14
11124;BME280;5616;42.692;23.312;2023-05-20T02:39:46;95382.19;;;12.80;98.70
11124;BME280;5616;42.692;23.312;2023-05-20T02:42:13;95385.22;;;12.84;98.13
11124;BME280;5616;42.692;23.312;2023-05-20T02:44:40;95392.66;;;12.66;99.51
11124;BME280;5616;42.692;23.312;2023-05-20T02:47:09;95384.31;;;12.70;99.07
11124;BME280;5616;42.692;23.312;2023-05-20T02:49:35;95384.03;;;12.59;99.70
11124;BME280;5616;42.692;23.312;2023-05-20T02:52:03;95377.84;;;12.60;99.76
11124;BME280;5616;42.692;23.312;2023-05-20T02:54:29;95381.47;;;12.65;99.04
11124;BME280;5616;42.692;23.312;2023-05-20T02:56:57;95383.75;;;12.75;98.40
11124;BME280;5616;42.692;23.312;2023-05-20T02:59:23;95381.84;;;12.62;98.73
11124;BME280;5616;42.692;23.312;2023-05-20T03:01:50;95384.91;;;12.51;98.58
11124;BME280;5616;42.692;23.312;2023-05-20T03:04:18;95385.47;;;12.47;98.81
11124;BME280;5616;42.692;23.312;2023-05-20T03:06:45;95384.81;;;12.59;98.07
11124;BME280;5616;42.692;23.312;2023-05-20T03:09:14;95398.06;;;12.71;97.70
11124;BME280;5616;42.692;23.312;2023-05-20T03:11:41;95397.94;;;12.79;98.07
11124;BME280;5616;42.692;23.312;2023-05-20T03:14:08;95401.94;;;12.81;97.37
11124;BME280;5616;42.692;23.312;2023-05-20T03:16:35;95407.47;;;12.72;97.26
11124;BME280;5616;42.692;23.312;2023-05-20T03:19:02;95409.53;;;12.62;97.74
11124;BME280;5616;42.692;23.312;2023-05-20T03:21:30;95412.25;;;12.54;98.46
11124;BME280;5616;42.692;23.312;2023-05-20T03:23:58;95406.31;;;12.39;99.63
11124;BME280;5616;42.692;23.312;2023-05-20T03:26:25;95414.84;;;12.54;99.38
11124;BME280;5616;42.692;23.312;2023-05-20T03:28:52;95405.84;;;12.50;99.22
11124;BME280;5616;42.692;23.312;2023-05-20T03:31:19;95399.59;;;12.44;99.60
11124;BME280;5616;42.692;23.312;2023-05-20T03:33:46;95404.72;;;12.38;100.00
11124;BME280;5616;42.692;23.312;2023-05-20T03:36:13;95406.75;;;12.42;100.00
11124;BME280;5616;42.692;23.312;2023-05-20T03:38:41;95405.97;;;12.42;100.00
11124;BME280;5616;42.692;23.312;2023-05-20T03:41:08;95418.06;;;12.56;99.73
11124;BME280;5616;42.692;23.312;2023-05-20T03:43:34;95412.00;;;12.70;99.84
11124;BME280;5616;42.692;23.312;2023-05-20T03:46:01;95410.78;;;12.66;99.82
11124;BME280;5616;42.692;23.312;2023-05-20T03:48:28;95415.47;;;12.77;99.20
11124;BME280;5616;42.692;23.312;2023-05-20T03:50:55;95422.25;;;12.78;99.29
11124;BME280;5616;42.692;23.312;2023-05-20T03:53:22;95420.66;;;12.77;99.34
11124;BME280;5616;42.692;23.312;2023-05-20T03:55:50;95417.94;;;12.85;98.41
11124;BME280;5616;42.692;23.312;2023-05-20T03:58:17;95426.81;;;12.97;98.33
11124;BME280;5616;42.692;23.312;2023-05-20T04:00:45;95432.94;;;13.11;97.10
11124;BME280;5616;42.692;23.312;2023-05-20T04:03:13;95434.59;;;13.18;96.57
11124;BME280;5616;42.692;23.312;2023-05-20T04:05:40;95430.25;;;13.25;95.97
11124;BME280;5616;42.692;23.312;2023-05-20T04:08:14;95436.53;;;13.37;95.11
11124;BME280;5616;42.692;23.312;2023-05-20T04:10:43;95441.38;;;13.47;94.60
11124;BME280;5616;42.692;23.312;2023-05-20T04:13:12;95443.03;;;13.55;93.48
11124;BME280;5616;42.692;23.312;2023-05-20T04:15:40;95442.66;;;13.58;93.37
11124;BME280;5616;42.692;23.312;2023-05-20T04:18:07;95440.72;;;13.66;93.50
11124;BME280;5616;42.692;23.312;2023-05-20T04:20:34;95448.91;;;13.70;93.92
11124;BME280;5616;42.692;23.312;2023-05-20T04:23:01;95442.94;;;13.69;93.49
11124;BME280;5616;42.692;23.312;2023-05-20T04:25:28;95442.72;;;13.64;93.64
11124;BME280;5616;42.692;23.312;2023-05-20T04:27:56;95436.94;;;13.69;94.28
11124;BME280;5616;42.692;23.312;2023-05-20T04:30:25;95440.09;;;13.64;94.65
11124;BME280;5616;42.692;23.312;2023-05-20T04:32:53;95438.56;;;13.76;94.28
11124;BME280;5616;42.692;23.312;2023-05-20T04:35:20;95437.47;;;13.92;93.49
11124;BME280;5616;42.692;23.312;2023-05-20T04:37:51;95446.72;;;14.07;92.84
11124;BME280;5616;42.692;23.312;2023-05-20T04:40:20;95446.78;;;14.21;92.20
11124;BME280;5616;42.692;23.312;2023-05-20T04:42:47;95447.59;;;14.28;91.67
11124;BME280;5616;42.692;23.312;2023-05-20T04:45:14;95451.28;;;14.40;91.69
11124;BME280;5616;42.692;23.312;2023-05-20T04:47:43;95447.91;;;14.52;91.31
11124;BME280;5616;42.692;23.312;2023-05-20T04:50:11;95452.75;;;14.68;89.97
11124;BME280;5616;42.692;23.312;2023-05-20T04:52:40;95455.56;;;14.67;89.51
11124;BME280;5616;42.692;23.312;2023-05-20T04:55:08;95448.19;;;14.77;89.57
11124;BME280;5616;42.692;23.312;2023-05-20T04:57:35;95455.38;;;14.88;90.09
11124;BME280;5616;42.692;23.312;2023-05-20T05:00:05;95450.81;;;15.03;88.59
11124;BME280;5616;42.692;23.312;2023-05-20T05:02:35;95451.84;;;15.22;87.84
11124;BME280;5616;42.692;23.312;2023-05-20T05:05:04;95447.03;;;15.45;87.04
11124;BME280;5616;42.692;23.312;2023-05-20T05:07:31;95445.84;;;15.61;84.92
11124;BME280;5616;42.692;23.312;2023-05-20T05:09:57;95451.59;;;15.76;84.09
11124;BME280;5616;42.692;23.312;2023-05-20T05:12:27;95456.59;;;15.90;82.93
11124;BME280;5616;42.692;23.312;2023-05-20T05:14:54;95463.38;;;15.98;83.11
11124;BME280;5616;42.692;23.312;2023-05-20T05:17:23;95457.72;;;16.14;81.92
11124;BME280;5616;42.692;23.312;2023-05-20T05:19:50;95460.84;;;16.36;81.28
11124;BME280;5616;42.692;23.312;2023-05-20T05:22:18;95455.66;;;16.29;81.37
11124;BME280;5616;42.692;23.312;2023-05-20T05:24:45;95454.16;;;16.60;81.13
11124;BME280;5616;42.692;23.312;2023-05-20T05:27:12;95445.31;;;16.67;80.24
11124;BME280;5616;42.692;23.312;2023-05-20T05:29:39;95446.69;;;17.01;78.35
11124;BME280;5616;42.692;23.312;2023-05-20T05:32:06;95444.47;;;17.29;77.62
11124;BME280;5616;42.692;23.312;2023-05-20T05:34:33;95438.50;;;17.22;77.06
11124;BME280;5616;42.692;23.312;2023-05-20T05:37:00;95436.41;;;17.62;75.50
11124;BME280;5616;42.692;23.312;2023-05-20T05:39:28;95435.63;;;17.80;74.61
11124;BME280;5616;42.692;23.312;2023-05-20T05:41:55;95438.16;;;18.22;72.29
11124;BME280;5616;42.692;23.312;2023-05-20T05:44:22;95448.16;;;18.62;70.45
11124;BME280;5616;42.692;23.312;2023-05-20T05:46:50;95436.00;;;18.97;69.85
11124;BME280;5616;42.692;23.312;2023-05-20T05:49:16;95446.78;;;19.30;68.31
11124;BME280;5616;42.692;23.312;2023-05-20T05:51:43;95445.69;;;19.61;66.38
11124;BME280;5616;42.692;23.312;2023-05-20T05:54:11;95442.81;;;19.97;65.88
11124;BME280;5616;42.692;23.312;2023-05-20T05:56:39;95436.41;;;20.28;64.34
11124;BME280;5616;42.692;23.312;2023-05-20T05:59:06;95435.63;;;20.16;62.69
11124;BME280;5616;42.692;23.312;2023-05-20T06:01:33;95426.16;;;20.66;62.06
11124;BME280;5616;42.692;23.312;2023-05-20T06:04:02;95429.13;;;20.87;60.06
11124;BME280;5616;42.692;23.312;2023-05-20T06:06:30;95425.66;;;20.98;59.02
11124;BME280;5616;42.692;23.312;2023-05-20T06:08:57;95419.97;;;21.34;59.88
11124;BME280;5616;42.692;23.312;2023-05-20T06:11:24;95415.94;;;21.81;58.82
11124;BME280;5616;42.692;23.312;2023-05-20T06:13:53;95414.69;;;22.44;57.93
11124;BME280;5616;42.692;23.312;2023-05-20T06:16:20;95415.00;;;22.96;54.78
11124;BME280;5616;42.692;23.312;2023-05-20T06:18:47;95411.00;;;23.52;53.38
11124;BME280;5616;42.692;23.312;2023-05-20T06:21:15;95414.28;;;24.11;51.17
11124;BME280;5616;42.692;23.312;2023-05-20T06:23:42;95409.47;;;24.55;48.39
11124;BME280;5616;42.692;23.312;2023-05-20T06:26:10;95416.63;;;24.74;46.45
11124;BME280;5616;42.692;23.312;2023-05-20T06:28:37;95415.66;;;25.01;45.93
11124;BME280;5616;42.692;23.312;2023-05-20T06:31:06;95406.41;;;25.18;44.66
11124;BME280;5616;42.692;23.312;2023-05-20T06:33:34;95402.22;;;25.63;44.54
11124;BME280;5616;42.692;23.312;2023-05-20T06:36:10;95403.50;;;25.80;42.90
11124;BME280;5616;42.692;23.312;2023-05-20T06:38:36;95391.34;;;25.14;45.99
11124;BME280;5616;42.692;23.312;2023-05-20T06:41:04;95393.75;;;25.61;43.27
11124;BME280;5616;42.692;23.312;2023-05-20T06:43:31;95388.44;;;25.40;44.56
11124;BME280;5616;42.692;23.312;2023-05-20T06:46:26;95382.53;;;26.14;44.76
11124;BME280;5616;42.692;23.312;2023-05-20T06:48:56;95376.84;;;27.00;41.50
11124;BME280;5616;42.692;23.312;2023-05-20T06:51:22;95382.69;;;27.64;39.23
11124;BME280;5616;42.692;23.312;2023-05-20T06:53:49;95386.22;;;27.83;39.04
11124;BME280;5616;42.692;23.312;2023-05-20T06:56:16;95387.44;;;28.20;37.11
11124;BME280;5616;42.692;23.312;2023-05-20T06:58:43;95387.38;;;28.25;36.18
11124;BME280;5616;42.692;23.312;2023-05-20T07:01:10;95401.09;;;28.32;36.63
11124;BME280;5616;42.692;23.312;2023-05-20T07:03:38;95405.38;;;28.51;37.39
11124;BME280;5616;42.692;23.312;2023-05-20T07:06:06;95391.72;;;28.63;36.70
11124;BME280;5616;42.692;23.312;2023-05-20T07:08:33;95387.31;;;29.09;35.34
11124;BME280;5616;42.692;23.312;2023-05-20T07:11:00;95378.00;;;29.90;35.07
11124;BME280;5616;42.692;23.312;2023-05-20T07:13:29;95377.78;;;31.18;32.40
11124;BME280;5616;42.692;23.312;2023-05-20T07:15:57;95379.59;;;32.06;29.27
11124;BME280;5616;42.692;23.312;2023-05-20T07:18:24;95378.69;;;34.25;27.25
11124;BME280;5616;42.692;23.312;2023-05-20T07:20:54;95382.13;;;32.11;28.31
11124;BME280;5616;42.692;23.312;2023-05-20T07:23:34;95378.09;;;32.87;27.92
11124;BME280;5616;42.692;23.312;2023-05-20T07:26:01;95376.38;;;33.00;28.24
11124;BME280;5616;42.692;23.312;2023-05-20T07:28:28;95378.75;;;34.95;25.01
11124;BME280;5616;42.692;23.312;2023-05-20T07:30:55;95372.28;;;34.76;24.92
11124;BME280;5616;42.692;23.312;2023-05-20T07:33:25;95369.56;;;36.03;22.31
11124;BME280;5616;42.692;23.312;2023-05-20T07:35:55;95372.59;;;37.14;21.24
11124;BME280;5616;42.692;23.312;2023-05-20T07:38:22;95385.09;;;38.84;19.70
11124;BME280;5616;42.692;23.312;2023-05-20T07:41:00;95383.72;;;38.93;19.51
11124;BME280;5616;42.692;23.312;2023-05-20T07:43:27;95383.19;;;39.03;20.28
11124;BME280;5616;42.692;23.312;2023-05-20T07:45:55;95384.56;;;37.84;21.22
11124;BME280;5616;42.692;23.312;2023-05-20T07:48:21;95382.28;;;38.45;20.30
11124;BME280;5616;42.692;23.312;2023-05-20T07:50:48;95379.31;;;39.20;19.59
11124;BME280;5616;42.692;23.312;2023-05-20T07:53:18;95374.31;;;39.41;19.03
11124;BME280;5616;42.692;23.312;2023-05-20T07:55:45;95364.16;;;38.15;20.85
11124;BME280;5616;42.692;23.312;2023-05-20T07:58:13;95366.72;;;39.66;19.24
11124;BME280;5616;42.692;23.312;2023-05-20T08:00:40;95364.63;;;39.59;18.33
11124;BME280;5616;42.692;23.312;2023-05-20T08:03:07;95367.97;;;38.61;19.98
11124;BME280;5616;42.692;23.312;2023-05-20T08:06:01;95366.59;;;38.04;22.44
11124;BME280;5616;42.692;23.312;2023-05-20T08:08:29;95364.69;;;38.05;20.08
11124;BME280;5616;42.692;23.312;2023-05-20T08:11:02;95359.81;;;37.94;20.61
11124;BME280;5616;42.692;23.312;2023-05-20T08:13:30;95350.56;;;38.93;19.61
11124;BME280;5616;42.692;23.312;2023-05-20T08:15:58;95357.25;;;38.64;20.07
11124;BME280;5616;42.692;23.312;2023-05-20T08:18:25;95357.78;;;38.89;19.91
11124;BME280;5616;42.692;23.312;2023-05-20T08:20:52;95355.41;;;39.03;20.34
11124;BME280;5616;42.692;23.312;2023-05-20T08:23:19;95360.88;;;40.06;18.81
11124;BME280;5616;42.692;23.312;2023-05-20T08:25:47;95353.53;;;39.07;19.35
11124;BME280;5616;42.692;23.312;2023-05-20T08:28:15;95352.88;;;38.75;20.19
11124;BME280;5616;42.692;23.312;2023-05-20T08:30:42;95362.03;;;37.77;21.24
11124;BME280;5616;42.692;23.312;2023-05-20T08:33:09;95358.38;;;36.38;22.35
11124;BME280;5616;42.692;23.312;2023-05-20T08:35:36;95359.47;;;36.85;22.87
11124;BME280;5616;42.692;23.312;2023-05-20T08:38:05;95358.53;;;37.05;21.84
11124;BME280;5616;42.692;23.312;2023-05-20T08:40:33;95344.00;;;36.46;22.89
11124;BME280;5616;42.692;23.312;2023-05-20T08:43:03;95357.22;;;36.39;22.47
11124;BME280;5616;42.692;23.312;2023-05-20T08:45:31;95360.06;;;35.61;23.41
11124;BME280;5616;42.692;23.312;2023-05-20T08:48:03;95351.13;;;34.74;23.94
11124;BME280;5616;42.692;23.312;2023-05-20T08:50:30;95348.22;;;33.92;25.34
11124;BME280;5616;42.692;23.312;2023-05-20T08:52:58;95355.19;;;34.51;25.97
11124;BME280;5616;42.692;23.312;2023-05-20T08:55:32;95354.47;;;35.78;23.28
11124;BME280;5616;42.692;23.312;2023-05-20T08:58:03;95353.75;;;35.57;23.60
11124;BME280;5616;42.692;23.312;2023-05-20T09:00:31;95350.41;;;35.60;23.45
11124;BME280;5616;42.692;23.312;2023-05-20T09:02:58;95343.69;;;35.21;24.82
11124;BME280;5616;42.692;23.312;2023-05-20T09:05:25;95337.81;;;34.28;25.93
11124;BME280;5616;42.692;23.312;2023-05-20T09:08:02;95351.84;;;34.63;25.19
11124;BME280;5616;42.692;23.312;2023-05-20T09:10:30;95334.88;;;34.21;26.72
11124;BME280;5616;42.692;23.312;2023-05-20T09:12:59;95337.78;;;33.99;24.73
11124;BME280;5616;42.692;23.312;2023-05-20T09:15:27;95328.19;;;32.83;26.79
11124;BME280;5616;42.692;23.312;2023-05-20T09:17:54;95320.97;;;33.26;27.61
11124;BME280;5616;42.692;23.312;2023-05-20T09:20:21;95315.94;;;32.82;27.60
11124;BME280;5616;42.692;23.312;2023-05-20T09:22:50;95322.06;;;31.69;28.06
11124;BME280;5616;42.692;23.312;2023-05-20T09:25:18;95315.06;;;30.35;30.44
11124;BME280;5616;42.692;23.312;2023-05-20T09:27:45;95324.06;;;28.32;35.67
11124;BME280;5616;42.692;23.312;2023-05-20T09:30:12;95316.22;;;27.74;36.08
11124;BME280;5616;42.692;23.312;2023-05-20T09:32:40;95324.78;;;27.43;37.61
11124;BME280;5616;42.692;23.312;2023-05-20T09:35:07;95315.75;;;26.81;37.03
11124;BME280;5616;42.692;23.312;2023-05-20T09:37:35;95309.78;;;26.55;37.52
11124;BME280;5616;42.692;23.312;2023-05-20T09:40:03;95305.09;;;26.42;38.29
11124;BME280;5616;42.692;23.312;2023-05-20T09:42:37;95307.66;;;26.03;38.90
11124;BME280;5616;42.692;23.312;2023-05-20T09:45:06;95304.09;;;25.34;42.91
11124;BME280;5616;42.692;23.312;2023-05-20T09:47:36;95296.75;;;24.85;41.63
11124;BME280;5616;42.692;23.312;2023-05-20T09:50:07;95297.78;;;24.74;42.79
11124;BME280;5616;42.692;23.312;2023-05-20T09:52:36;95300.72;;;24.98;41.77
11124;BME280;5616;42.692;23.312;2023-05-20T09:55:04;95292.00;;;24.82;44.19
11124;BME280;5616;42.692;23.312;2023-05-20T09:57:33;95291.41;;;24.55;42.05
11124;BME280;5616;42.692;23.312;2023-05-20T10:00:00;95291.41;;;24.45;45.14
11124;BME280;5616;42.692;23.312;2023-05-20T10:02:41;95298.00;;;24.43;45.33
11124;BME280;5616;42.692;23.312;2023-05-20T10:05:13;95283.25;;;24.47;44.41
11124;BME280;5616;42.692;23.312;2023-05-20T10:08:15;95287.72;;;24.56;40.96
11124;BME280;5616;42.692;23.312;2023-05-20T10:10:47;95279.06;;;24.81;40.29
11124;BME280;5616;42.692;23.312;2023-05-20T10:13:44;95266.63;;;24.86;42.60
11124;BME280;5616;42.692;23.312;2023-05-20T10:16:25;95275.34;;;24.97;41.74
11124;BME280;5616;42.692;23.312;2023-05-20T10:19:00;95256.53;;;25.24;41.60
11124;BME280;5616;42.692;23.312;2023-05-20T10:21:32;95256.78;;;25.42;39.13
11124;BME280;5616;42.692;23.312;2023-05-20T10:24:05;95247.81;;;25.33;39.10
11124;BME280;5616;42.692;23.312;2023-05-20T10:26:36;95258.38;;;25.38;38.89
11124;BME280;5616;42.692;23.312;2023-05-20T10:29:13;95256.63;;;24.83;39.40
11124;BME280;5616;42.692;23.312;2023-05-20T10:31:43;95247.84;;;24.48;43.80
11124;BME280;5616;42.692;23.312;2023-05-20T10:34:14;95257.41;;;24.94;39.04
11124;BME280;5616;42.692;23.312;2023-05-20T10:36:44;95245.22;;;24.53;41.52
11124;BME280;5616;42.692;23.312;2023-05-20T10:39:15;95245.25;;;24.83;40.49
11124;BME280;5616;42.692;23.312;2023-05-20T10:41:42;95244.97;;;24.64;42.16
11124;BME280;5616;42.692;23.312;2023-05-20T10:44:09;95234.09;;;24.20;39.22
11124;BME280;5616;42.692;23.312;2023-05-20T10:46:36;95232.50;;;24.24;40.19
11124;BME280;5616;42.692;23.312;2023-05-20T10:49:03;95223.81;;;24.29;38.99
11124;BME280;5616;42.692;23.312;2023-05-20T10:51:34;95217.25;;;24.52;40.36
11124;BME280;5616;42.692;23.312;2023-05-20T10:54:03;95217.75;;;24.49;39.37
11124;BME280;5616;42.692;23.312;2023-05-20T10:56:30;95221.16;;;24.34;39.20
11124;BME280;5616;42.692;23.312;2023-05-20T10:58:56;95226.09;;;24.05;40.22
11124;BME280;5616;42.692;23.312;2023-05-20T11:01:25;95213.41;;;23.92;41.47
11124;BME280;5616;42.692;23.312;2023-05-20T11:03:53;95215.03;;;24.03;40.41
11124;BME280;5616;42.692;23.312;2023-05-20T11:06:26;95212.22;;;24.30;41.29
11124;BME280;5616;42.692;23.312;2023-05-20T11:08:53;95204.81;;;24.37;40.67
11124;BME280;5616;42.692;23.312;2023-05-20T11:11:22;95204.78;;;24.12;39.94
11124;BME280;5616;42.692;23.312;2023-05-20T11:13:51;95209.25;;;24.06;40.52
11124;BME280;5616;42.692;23.312;2023-05-20T11:16:19;95179.19;;;24.07;41.12
11124;BME280;5616;42.692;23.312;2023-05-20T11:18:47;95197.97;;;24.36;40.03
11124;BME280;5616;42.692;23.312;2023-05-20T11:21:14;95199.56;;;24.52;42.79
11124;BME280;5616;42.692;23.312;2023-05-20T11:23:41;95199.78;;;24.15;42.28
11124;BME280;5616;42.692;23.312;2023-05-20T11:26:08;95191.47;;;23.71;43.63
11124;BME280;5616;42.692;23.312;2023-05-20T11:28:37;95203.56;;;23.57;43.46
11124;BME280;5616;42.692;23.312;2023-05-20T11:31:04;95183.00;;;23.54;43.38
11124;BME280;5616;42.692;23.312;2023-05-20T11:33:31;95176.25;;;23.94;40.29
11124;BME280;5616;42.692;23.312;2023-05-20T11:38:25;95181.56;;;24.24;39.52
11124;BME280;5616;42.692;23.312;2023-05-20T11:40:53;95160.63;;;23.67;41.62
11124;BME280;5616;42.692;23.312;2023-05-20T11:43:22;95172.19;;;23.56;42.43
11124;BME280;5616;42.692;23.312;2023-05-20T11:45:53;95164.69;;;23.28;44.67
11124;BME280;5616;42.692;23.312;2023-05-20T11:48:20;95166.94;;;23.66;45.67
11124;BME280;5616;42.692;23.312;2023-05-20T11:50:47;95157.53;;;24.10;43.78
11124;BME280;5616;42.692;23.312;2023-05-20T11:53:15;95157.47;;;23.70;43.65
11124;BME280;5616;42.692;23.312;2023-05-20T11:55:44;95160.03;;;23.55;43.78
11124;BME280;5616;42.692;23.312;2023-05-20T11:58:15;95170.31;;;23.46;45.13
11124;BME280;5616;42.692;23.312;2023-05-20T12:00:42;95161.13;;;23.54;43.78
11124;BME280;5616;42.692;23.312;2023-05-20T12:03:10;95153.03;;;23.91;43.48
11124;BME280;5616;42.692;23.312;2023-05-20T12:05:37;95155.97;;;24.24;41.72
11124;BME280;5616;42.692;23.312;2023-05-20T12:08:04;95142.28;;;24.27;43.12
11124;BME280;5616;42.692;23.312;2023-05-20T12:10:31;95129.84;;;24.43;41.76
11124;BME280;5616;42.692;23.312;2023-05-20T12:12:58;95142.00;;;24.14;44.92
11124;BME280;5616;42.692;23.312;2023-05-20T12:15:24;95142.78;;;24.40;41.54
11124;BME280;5616;42.692;23.312;2023-05-20T12:17:52;95134.63;;;24.41;41.35
11124;BME280;5616;42.692;23.312;2023-05-20T12:20:22;95131.97;;;24.26;43.27
11124;BME280;5616;42.692;23.312;2023-05-20T12:22:49;95145.69;;;24.48;42.69
11124;BME280;5616;42.692;23.312;2023-05-20T12:25:17;95138.03;;;24.11;41.35
11124;BME280;5616;42.692;23.312;2023-05-20T12:27:45;95143.28;;;23.96;43.11
11124;BME280;5616;42.692;23.312;2023-05-20T12:30:14;95156.69;;;23.69;41.90
11124;BME280;5616;42.692;23.312;2023-05-20T12:32:42;95159.66;;;23.31;43.11
11124;BME280;5616;42.692;23.312;2023-05-20T12:35:09;95184.06;;;23.06;43.70
11124;BME280;5616;42.692;23.312;2023-05-20T12:37:38;95186.06;;;22.89;42.03
11124;BME280;5616;42.692;23.312;2023-05-20T12:40:07;95180.44;;;22.76;43.15
11124;BME280;5616;42.692;23.312;2023-05-20T12:42:35;95177.13;;;22.53;44.54
11124;BME280;5616;42.692;23.312;2023-05-20T12:45:03;95202.59;;;22.48;44.58
11124;BME280;5616;42.692;23.312;2023-05-20T12:47:31;95200.81;;;22.22;42.81
11124;BME280;5616;42.692;23.312;2023-05-20T12:49:58;95208.75;;;21.78;41.11
11124;BME280;5616;42.692;23.312;2023-05-20T12:52:25;95195.81;;;21.72;41.43
11124;BME280;5616;42.692;23.312;2023-05-20T12:54:54;95190.88;;;21.32;44.45
11124;BME280;5616;42.692;23.312;2023-05-20T12:57:21;95184.72;;;21.43;44.55
11124;BME280;5616;42.692;23.312;2023-05-20T12:59:48;95172.44;;;21.49;42.54
11124;BME280;5616;42.692;23.312;2023-05-20T13:02:15;95176.84;;;21.43;43.17
11124;BME280;5616;42.692;23.312;2023-05-20T13:04:42;95188.31;;;21.59;43.97
11124;BME280;5616;42.692;23.312;2023-05-20T13:07:08;95183.47;;;21.72;44.93
11124;BME280;5616;42.692;23.312;2023-05-20T13:09:35;95181.16;;;21.81;43.32